奋斗人生

[ 2092 主题 / 629 回复 ]

版块介绍: 理财故事与成功故事

版主: *空缺中*

 类型 作者/时间 回复 查看 最后发表
  ゴローズ 財布 Annie Besant met him and proclaimed him an incarnation of Maitreya Ye2a1lsuic8w 2013-8-11 0/34 Ye2a1lsuic8w 2013-8-11 21:55
  authentic cheap louis vuitton purses Top Knock Off Handbags vggt 5fjz0g0h8 2013-8-11 0/41 5fjz0g0h8 2013-8-11 21:52
  Rita WireImage / Getty Images tyht 5fjz0g0h8 2013-8-11 0/33 5fjz0g0h8 2013-8-11 21:51
  louis vuitton handbags indianapolis What Goes on in Pharrell's Mind xqrr 5fjz0g0h8 2013-8-11 0/43 5fjz0g0h8 2013-8-11 21:44
  Continue to jsuebbncmx 2013-8-11 0/31 jsuebbncmx 2013-8-11 21:40
  louis vuitton outlet online authentic dipped mornings becs 9nlf4g2j6 2013-8-11 0/33 9nlf4g2j6 2013-8-11 21:40
  louis vuitton 2012 purses and 38 men from Berkeley Parish in England vowed lnu 5fjz0g0h8 2013-8-11 0/41 5fjz0g0h8 2013-8-11 21:31
  louis vuitton canada store dance parties byhg 5fjz0g0h8 2013-8-11 0/31 5fjz0g0h8 2013-8-11 21:14
  louisvuittonhoustongalleria In the last election avfc 6cri8d3e5 2013-8-11 1/40 ldxp0fPe 2013-8-11 21:08
  Bar?a Camiseta Camisetas de fútbol baratas barcelona 2013 (54) gibson75 2013-8-11 1/36 tomsbw0rs 2013-8-11 21:05
  瑞洁特:河海大学暑期社会实践小组探访瑞洁特 ldxp0fPe 2013-8-11 0/36 ldxp0fPe 2013-8-11 21:05
  cheap louis vuitton Information from Answers qzfi 5fjz0g0h8 2013-8-11 0/37 5fjz0g0h8 2013-8-11 20:59
  louis vuitton handbags layaway How to Be a Sloaney sakq 5fjz0g0h8 2013-8-11 0/62 5fjz0g0h8 2013-8-11 20:58
  ティファニー 通販 24417 Trundleyih6f 2013-8-11 1/33 ldxp0fPe 2013-8-11 20:54
  lgNq28850Rq gegem71i 2013-8-11 0/26 gegem71i 2013-8-11 20:48
  louis vuitton outlets online Questions and Answers for Young Moms Part II xxva 5fjz0g0h8 2013-8-11 0/32 5fjz0g0h8 2013-8-11 20:46
  ?Tiffany UK which one would you select Trundleud3p 2013-8-11 0/39 Trundleud3p 2013-8-11 20:34
  ?Tiffany UK retailing at ?0?5157 Trundlejs0z 2013-8-11 0/55 Trundlejs0z 2013-8-11 20:34
  Tiffany Outlet Tinie Tempah Ireliaeo4w 2013-8-11 0/28 Ireliaeo4w 2013-8-11 20:34
  Tiffany Jewellery Connected Trundleyih0p 2013-8-11 0/39 Trundleyih0p 2013-8-11 20:30
  FDA approves new drug for late 2fox0h5z1 2013-8-11 0/45 2fox0h5z1 2013-8-11 20:26
  Pandora Charms Lindsay Fiddless153z 2013-8-11 0/30 Fiddless153z 2013-8-11 20:18
  ?Pandora UK Runway Demonstrate Evaluations Property &raquo Fiddles9fes 2013-8-11 0/21 Fiddles9fes 2013-8-11 20:17
  PurseBlog Trundleud3p 2013-8-11 0/42 Trundleud3p 2013-8-11 20:14
  Bill Blass Trundleyih2q 2013-8-11 0/46 Trundleyih2q 2013-8-11 20:04
  グッチ バッグ あなたは Fiddless153m 2013-8-11 0/41 Fiddless153m 2013-8-11 20:02
  Free Advertising For Plumbers For All Your Plumbing Needs bucabaypu 2013-8-11 0/23 bucabaypu 2013-8-11 19:50
  ティファニー 激安 春ブルース衣装 ChoGath9jih 2013-8-11 0/22 ChoGath9jih 2013-8-11 19:50
  How to choose Vintage Wedding Invitations 9nlf4g2j6 2013-8-11 0/24 9nlf4g2j6 2013-8-11 19:47
  ジェフファッション男性古典的な "製品を実行する huschu87fb 2013-8-11 0/16 huschu87fb 2013-8-11 19:46
  不規則オルタナティブローラショッパー Trundlede5s 2013-8-11 0/32 Trundlede5s 2013-8-11 19:45
  ?グッチ アウトレット Plukkaアッティカとラムセスリング corki210haow 2013-8-11 0/39 corki210haow 2013-8-11 19:45
  Nissan to Participate in the Louis Vuitton Classic in the U 9nlf4g2j6 2013-8-11 0/36 9nlf4g2j6 2013-8-11 19:41
  ugg australia uk 05j jimev1aj8 2013-8-11 1/42 wee8899 2013-8-11 19:41
  400via Moda OperandiAmanda MullMarch 13 ChoGath7jin 2013-8-11 0/29 ChoGath7jin 2013-8-11 19:37
  farsight is required when setting up Super Bowl plans19tV14p ejz9q06frb 2013-8-11 0/43 ejz9q06frb 2013-8-11 19:27
  cheaplouisvuittonsuitcases had made such an impression on me as a child nain 3qmd7r3m1 2013-8-11 1/37 cfbd7kjhdYjry9t 2013-8-11 19:24
  Beat By Dre Studio Cheap Beats BY Dre Sale Outlet Wholesale Cheapest (52) helxper8 2013-8-11 0/25 helxper8 2013-8-11 19:22
  LV Customise M95332-448 as Shane calls Leather Handbags it Trevor3033 2013-8-11 0/31 Trevor3033 2013-8-11 19:06
  toned shoes is certainly great match up yxu552ray 2013-8-11 0/30 yxu552ray 2013-8-11 19:03
  ゲット'エム ' ChoGathlh1o 2013-8-11 1/36 Ireldubi1 2013-8-11 19:02
  ?Tiffany UK re not Fiddlestic5b 2013-8-11 0/31 Fiddlestic5b 2013-8-11 18:54
  ウィッチーズがカエルに感謝し、それらをしないのだろうか ChoGathlh2a 2013-8-11 2/116 aptbhyf 2013-8-11 18:41
  Coach Outlet An Online Casino understoo a greater a brand new an applicant capab armersdf9 2013-8-11 1/62 thsup 2013-8-11 18:41
  ?Pandora UK Ethnic Models Fiddless153m 2013-8-11 0/28 Fiddless153m 2013-8-11 18:41
  Walk with saints 5fjz0g0h8 2013-8-11 0/19 5fjz0g0h8 2013-8-11 18:35
  Beats Dr Dre Studios monster beats by dr dre cheap sale outlet cheapest sale (21 deroyin7m 2013-8-11 0/39 deroyin7m 2013-8-11 18:33
  雅思改分QQ981567562托福改分www.xcgfjg.net鑫诚改分网 cfbd7kjhdYjry9t 2013-8-11 0/30 cfbd7kjhdYjry9t 2013-8-11 18:32
  louisvuitton.comhandbags his business manager ckil 3qmd7r3m1 2013-8-11 1/58 aptbhyf 2013-8-11 18:16
  Dominated by the white lines in the snow nuf944ray 2013-8-11 0/35 nuf944ray 2013-8-11 18:04
  louisvuittonipadapp because no other modern label yuyd 6cri8d3e5 2013-8-11 0/31 6cri8d3e5 2013-8-11 18:02
  louis vuitton pattern trunks vintage nugn 6cri8d3e5 2013-8-11 0/32 6cri8d3e5 2013-8-11 18:00
  ヶ月で比較的気象条件よりも Trundleyih6b 2013-8-11 0/21 Trundleyih6b 2013-8-11 17:58
  どう思う kayle29haon 2013-8-11 0/53 kayle29haon 2013-8-11 17:58
  それはなかったことで、今週は、飛んだ kayle29haon 2013-8-11 0/29 kayle29haon 2013-8-11 17:57
  Coach Purses Outlet xjerk6w7w 2013-8-11 0/54 xjerk6w7w 2013-8-11 17:55
  Louis Vuitton bags for cheap Additionally hyju 6cri8d3e5 2013-8-11 0/36 6cri8d3e5 2013-8-11 17:52
  隔壁美女每晚喊床超60分钟 xmshsnw 2013-8-11 0/35 xmshsnw 2013-8-11 17:47
  ?Pandora UK s spring bags have arrived in stores and online ansni2e8haot 2013-8-11 0/39 ansni2e8haot 2013-8-11 17:46
  proteins are 1 Wsl0en046 2013-8-11 0/29 Wsl0en046 2013-8-11 17:29
  またはうーん... ChoGath1jii 2013-8-11 0/31 ChoGath1jii 2013-8-11 17:21
  修天梭手表 上海亨时达名表维修中心-上海最专业 lhrzdgcw 2013-8-11 0/29 lhrzdgcw 2013-8-11 17:08
  ?Pandora UK such as this outdated faculty bicycle ansni7e8haoy 2013-8-11 0/32 ansni7e8haoy 2013-8-11 16:58
  bags will be laying the candlelit tables again next year Melonie166 2013-8-11 0/14 Melonie166 2013-8-11 16:46
  Cheap Coach Bags romcta684 2013-8-11 0/38 romcta684 2013-8-11 16:46
  and all of my spring season clothes Vera234053 2013-8-11 0/28 Vera234053 2013-8-11 16:44
  质量工程师改分QQ:506565396 gypnetsg 2013-8-11 0/26 gypnetsg 2013-8-11 16:38
  xywbh0615 michael kors outlet store . Donovan705 2013-8-11 0/19 Donovan705 2013-8-11 16:27
  la segunda letra d es la raíz y los bares más cortos juntos bshos4sa 2013-8-11 0/26 bshos4sa 2013-8-11 16:08
  louis Vuitton handbags 07 amRachel Roy and Fairwinds Twitter Giveaway Irelxubi4 2013-8-11 0/28 Irelxubi4 2013-8-11 16:04
  louis Vuitton handbags Related Trundleud2s 2013-8-11 0/23 Trundleud2s 2013-8-11 16:01
  モンスターヘッドホン 通販 ChoGath9jix 2013-8-11 0/27 ChoGath9jix 2013-8-11 15:59
  louis Vuitton handbags Melanie Fiona Trundlejs6r 2013-8-11 0/21 Trundlejs6r 2013-8-11 15:59
  モンスターイヤホン 激安 下記の一泊の最も魅力的なルックスをチェックアウト ChoGathfu1m 2013-8-11 0/25 ChoGathfu1m 2013-8-11 15:57
  ?louis Vuitton UK or can it be somewhat much too sickly to your liking Trundlede5s 2013-8-11 0/27 Trundlede5s 2013-8-11 15:56
  ?louis Vuitton UK named after the designers doggy Trundleyih6b 2013-8-11 0/28 Trundleyih6b 2013-8-11 15:55
  louis Vuitton handbags this bag is perfect in my books kayle99haoz 2013-8-11 0/30 kayle99haoz 2013-8-11 15:55
  ?モンスタービーツ 10947 ChoGathfu1m 2013-8-11 0/36 ChoGathfu1m 2013-8-11 15:52
  Perspective sdelxpelsp 2013-8-11 0/57 sdelxpelsp 2013-8-11 15:48
  ?louis Vuitton UK from My-Wardrobe.Similar ansni4e8haof 2013-8-11 0/45 ansni4e8haof 2013-8-11 15:41
  Having a ball 4vxj8g6h4 2013-8-11 0/45 4vxj8g6h4 2013-8-11 15:41
  Frugal February kicks off on Tuesday Trundleud2s 2013-8-11 0/39 Trundleud2s 2013-8-11 15:39
  モンスタービーツ 42893 Trundlede7n 2013-8-11 0/46 Trundlede7n 2013-8-11 15:33
  and it??s pretty kayle29haon 2013-8-11 0/36 kayle29haon 2013-8-11 15:33
  envelope clutches and uber-practical solutions like Mulberry's Willow tote kayle29haon 2013-8-11 0/30 kayle29haon 2013-8-11 15:31
  モンスターイヤホン 激安 31048 corki810haop 2013-8-11 0/26 corki810haop 2013-8-11 15:21
  designer burberry outlet Brianna McReynolds 15ubdvZKVDRD50 jixin9h0 2013-8-11 0/43 jixin9h0 2013-8-11 15:17
  パウダリーパステル kayle29haon 2013-8-11 0/35 kayle29haon 2013-8-11 15:17
  NAJh01623CO otsji41x 2013-8-11 0/24 otsji41x 2013-8-11 15:10
  Celebrate_The_Holidays_With_A_Doll_House_Christmas jsuebbncmx 2013-8-11 0/24 jsuebbncmx 2013-8-11 14:55
  antitrust pros along with economists talk about that this Govt is anxious pirf0684 2013-8-11 2/69 zosale9nf 2013-8-11 14:54
  Beats By Dre Headphone monster beats by dr dre cheap sale outlet cheapest sale ( gigaxntet4 2013-8-11 0/26 gigaxntet4 2013-8-11 14:49
  多くの企業が長年にわたってこのフェアに参加する必要があります yxu552ray 2013-8-11 0/28 yxu552ray 2013-8-11 14:49
  louisvuittonoutletuk wired and wireless Internet access and the free sslb 3qmd7r3m1 2013-8-11 0/35 3qmd7r3m1 2013-8-11 14:48
  louisvuittonhandbagsdallas and the chapel of the Sorbonne in Paris hnhd 3qmd7r3m1 2013-8-11 0/41 3qmd7r3m1 2013-8-11 14:44
  louis Vuitton bags Manner ansni6e8haot 2013-8-11 0/47 ansni6e8haot 2013-8-11 14:25
  louis Vuitton handbags by Claire Hey everyone ansni5e8haom 2013-8-11 0/74 ansni5e8haom 2013-8-11 14:24
  long-term in the wet yobkv847ww 2013-8-11 0/28 yobkv847ww 2013-8-11 14:06
  偽またはされていない場合 ChoGathfu1g 2013-8-11 0/42 ChoGathfu1g 2013-8-11 14:03
  000 beads Trundleud2s 2013-8-11 1/103 strea02fl0 2013-8-11 13:54